sensor_id;sensor_type;location;lat;lon;timestamp;temperature;humidity
1806;DHT22;901;48.142;11.516;2022-07-18T00:01:03;21.60;99.90
1806;DHT22;901;48.142;11.516;2022-07-18T00:03:29;21.50;99.90
1806;DHT22;901;48.142;11.516;2022-07-18T00:05:56;21.60;99.90
1806;DHT22;901;48.142;11.516;2022-07-18T00:08:23;21.70;99.90
1806;DHT22;901;48.142;11.516;2022-07-18T00:10:50;21.60;99.90
1806;DHT22;901;48.142;11.516;2022-07-18T00:13:18;21.60;99.90
1806;DHT22;901;48.142;11.516;2022-07-18T00:15:45;21.50;99.90
1806;DHT22;901;48.142;11.516;2022-07-18T00:18:12;21.50;99.90
1806;DHT22;901;48.142;11.516;2022-07-18T00:20:39;21.50;99.90
1806;DHT22;901;48.142;11.516;2022-07-18T00:23:08;21.50;99.90
1806;DHT22;901;48.142;11.516;2022-07-18T00:25:35;21.50;99.90
1806;DHT22;901;48.142;11.516;2022-07-18T00:28:01;21.40;99.90
1806;DHT22;901;48.142;11.516;2022-07-18T00:30:30;21.30;99.90
1806;DHT22;901;48.142;11.516;2022-07-18T00:32:57;21.10;99.90
1806;DHT22;901;48.142;11.516;2022-07-18T00:35:24;20.90;99.90
1806;DHT22;901;48.142;11.516;2022-07-18T00:37:50;21.00;99.90
1806;DHT22;901;48.142;11.516;2022-07-18T00:40:17;21.00;99.90
1806;DHT22;901;48.142;11.516;2022-07-18T00:42:45;21.10;99.90
1806;DHT22;901;48.142;11.516;2022-07-18T00:45:11;21.10;99.90
1806;DHT22;901;48.142;11.516;2022-07-18T00:47:40;21.10;99.90
1806;DHT22;901;48.142;11.516;2022-07-18T00:50:08;21.10;99.90
1806;DHT22;901;48.142;11.516;2022-07-18T00:52:35;21.00;99.90
1806;DHT22;901;48.142;11.516;2022-07-18T00:55:03;21.10;99.90
1806;DHT22;901;48.142;11.516;2022-07-18T00:57:30;20.90;99.90
1806;DHT22;901;48.142;11.516;2022-07-18T00:59:57;20.70;99.90
1806;DHT22;901;48.142;11.516;2022-07-18T01:02:43;20.60;99.90
1806;DHT22;901;48.142;11.516;2022-07-18T01:05:09;20.70;99.90
1806;DHT22;901;48.142;11.516;2022-07-18T01:07:37;20.60;99.90
1806;DHT22;901;48.142;11.516;2022-07-18T01:10:04;20.50;99.90
1806;DHT22;901;48.142;11.516;2022-07-18T01:12:31;20.40;99.90
1806;DHT22;901;48.142;11.516;2022-07-18T01:14:58;20.30;99.90
1806;DHT22;901;48.142;11.516;2022-07-18T01:17:25;20.20;99.90
1806;DHT22;901;48.142;11.516;2022-07-18T01:19:54;20.30;99.90
1806;DHT22;901;48.142;11.516;2022-07-18T01:22:22;20.30;99.90
1806;DHT22;901;48.142;11.516;2022-07-18T01:24:49;20.40;99.90
1806;DHT22;901;48.142;11.516;2022-07-18T01:27:16;20.40;99.90
1806;DHT22;901;48.142;11.516;2022-07-18T01:29:45;20.50;99.90
1806;DHT22;901;48.142;11.516;2022-07-18T01:32:13;20.50;99.90
1806;DHT22;901;48.142;11.516;2022-07-18T01:34:40;20.40;99.90
1806;DHT22;901;48.142;11.516;2022-07-18T01:37:08;20.20;99.90
1806;DHT22;901;48.142;11.516;2022-07-18T01:39:36;20.20;99.90
1806;DHT22;901;48.142;11.516;2022-07-18T01:42:06;20.30;99.90
1806;DHT22;901;48.142;11.516;2022-07-18T01:44:34;20.30;99.90
1806;DHT22;901;48.142;11.516;2022-07-18T01:47:01;20.40;99.90
1806;DHT22;901;48.142;11.516;2022-07-18T01:49:29;20.30;99.90
1806;DHT22;901;48.142;11.516;2022-07-18T01:51:56;20.30;99.90
1806;DHT22;901;48.142;11.516;2022-07-18T01:54:25;20.40;99.90
1806;DHT22;901;48.142;11.516;2022-07-18T01:56:54;20.40;99.90
1806;DHT22;901;48.142;11.516;2022-07-18T01:59:22;20.50;99.90
1806;DHT22;901;48.142;11.516;2022-07-18T02:01:49;20.60;99.90
1806;DHT22;901;48.142;11.516;2022-07-18T02:04:16;20.70;99.90
1806;DHT22;901;48.142;11.516;2022-07-18T02:06:43;20.70;99.90
1806;DHT22;901;48.142;11.516;2022-07-18T02:09:10;20.80;99.90
1806;DHT22;901;48.142;11.516;2022-07-18T02:11:37;20.80;99.90
1806;DHT22;901;48.142;11.516;2022-07-18T02:14:06;20.60;99.90
1806;DHT22;901;48.142;11.516;2022-07-18T02:16:32;20.40;99.90
1806;DHT22;901;48.142;11.516;2022-07-18T02:18:59;20.30;99.90
1806;DHT22;901;48.142;11.516;2022-07-18T02:21:26;20.40;99.90
1806;DHT22;901;48.142;11.516;2022-07-18T02:23:53;20.50;99.90
1806;DHT22;901;48.142;11.516;2022-07-18T02:26:20;20.50;99.90
1806;DHT22;901;48.142;11.516;2022-07-18T02:28:47;20.30;99.90
1806;DHT22;901;48.142;11.516;2022-07-18T02:31:15;20.30;99.90
1806;DHT22;901;48.142;11.516;2022-07-18T02:33:42;20.30;99.90
1806;DHT22;901;48.142;11.516;2022-07-18T02:36:09;20.30;99.90
1806;DHT22;901;48.142;11.516;2022-07-18T02:38:36;20.30;99.90
1806;DHT22;901;48.142;11.516;2022-07-18T02:41:03;20.20;99.90
1806;DHT22;901;48.142;11.516;2022-07-18T02:43:30;20.00;99.90
1806;DHT22;901;48.142;11.516;2022-07-18T02:45:56;19.90;99.90
1806;DHT22;901;48.142;11.516;2022-07-18T02:48:25;19.80;99.90
1806;DHT22;901;48.142;11.516;2022-07-18T02:50:51;19.70;99.90
1806;DHT22;901;48.142;11.516;2022-07-18T02:53:18;19.60;99.90
1806;DHT22;901;48.142;11.516;2022-07-18T02:55:48;19.40;99.90
1806;DHT22;901;48.142;11.516;2022-07-18T02:58:15;18.90;99.90
1806;DHT22;901;48.142;11.516;2022-07-18T03:00:42;18.80;99.90
1806;DHT22;901;48.142;11.516;2022-07-18T03:03:09;18.60;99.90
1806;DHT22;901;48.142;11.516;2022-07-18T03:05:37;18.60;99.90
1806;DHT22;901;48.142;11.516;2022-07-18T03:08:04;18.80;99.90
1806;DHT22;901;48.142;11.516;2022-07-18T03:10:31;19.00;99.90
1806;DHT22;901;48.142;11.516;2022-07-18T03:12:58;19.10;99.90
1806;DHT22;901;48.142;11.516;2022-07-18T03:15:24;19.30;99.90
1806;DHT22;901;48.142;11.516;2022-07-18T03:17:51;19.50;99.90
1806;DHT22;901;48.142;11.516;2022-07-18T03:20:18;19.70;99.90
1806;DHT22;901;48.142;11.516;2022-07-18T03:22:46;19.90;99.90
1806;DHT22;901;48.142;11.516;2022-07-18T03:25:13;19.90;99.90
1806;DHT22;901;48.142;11.516;2022-07-18T03:27:40;19.70;99.90
1806;DHT22;901;48.142;11.516;2022-07-18T03:30:08;19.30;99.90
1806;DHT22;901;48.142;11.516;2022-07-18T03:32:35;19.10;99.90
1806;DHT22;901;48.142;11.516;2022-07-18T03:35:02;18.90;99.90
1806;DHT22;901;48.142;11.516;2022-07-18T03:37:29;18.60;99.90
1806;DHT22;901;48.142;11.516;2022-07-18T03:39:57;18.40;99.90
1806;DHT22;901;48.142;11.516;2022-07-18T03:42:24;18.20;99.90
1806;DHT22;901;48.142;11.516;2022-07-18T03:44:51;18.10;99.90
1806;DHT22;901;48.142;11.516;2022-07-18T03:47:18;18.00;99.90
1806;DHT22;901;48.142;11.516;2022-07-18T03:49:45;18.10;99.90
1806;DHT22;901;48.142;11.516;2022-07-18T03:52:11;18.10;99.90
1806;DHT22;901;48.142;11.516;2022-07-18T03:54:38;18.00;99.90
1806;DHT22;901;48.142;11.516;2022-07-18T03:57:06;17.70;99.90
1806;DHT22;901;48.142;11.516;2022-07-18T03:59:33;17.80;99.90
1806;DHT22;901;48.142;11.516;2022-07-18T04:06:57;17.80;99.90
1806;DHT22;901;48.142;11.516;2022-07-18T04:09:25;18.00;99.90
1806;DHT22;901;48.142;11.516;2022-07-18T04:11:52;18.10;99.90
1806;DHT22;901;48.142;11.516;2022-07-18T04:14:20;18.40;99.90
1806;DHT22;901;48.142;11.516;2022-07-18T04:19:16;19.10;99.90
1806;DHT22;901;48.142;11.516;2022-07-18T04:21:43;19.70;99.90
1806;DHT22;901;48.142;11.516;2022-07-18T04:24:11;20.20;99.90
1806;DHT22;901;48.142;11.516;2022-07-18T04:26:38;20.70;99.90
1806;DHT22;901;48.142;11.516;2022-07-18T04:29:06;21.50;99.90
1806;DHT22;901;48.142;11.516;2022-07-18T04:31:34;21.90;99.90
1806;DHT22;901;48.142;11.516;2022-07-18T04:34:01;22.60;99.90
1806;DHT22;901;48.142;11.516;2022-07-18T04:36:28;23.20;99.90
1806;DHT22;901;48.142;11.516;2022-07-18T04:38:55;23.70;99.90
1806;DHT22;901;48.142;11.516;2022-07-18T04:41:21;24.00;99.90
1806;DHT22;901;48.142;11.516;2022-07-18T04:43:50;24.60;99.90
1806;DHT22;901;48.142;11.516;2022-07-18T04:48:47;25.10;99.90
1806;DHT22;901;48.142;11.516;2022-07-18T04:53:42;25.70;99.90
1806;DHT22;901;48.142;11.516;2022-07-18T04:56:09;26.30;99.90
1806;DHT22;901;48.142;11.516;2022-07-18T04:58:35;26.80;99.90
1806;DHT22;901;48.142;11.516;2022-07-18T05:01:02;27.10;99.90
1806;DHT22;901;48.142;11.516;2022-07-18T05:03:29;27.40;99.90
1806;DHT22;901;48.142;11.516;2022-07-18T05:05:57;27.70;99.90
1806;DHT22;901;48.142;11.516;2022-07-18T05:08:24;27.90;99.90
1806;DHT22;901;48.142;11.516;2022-07-18T05:10:51;28.00;99.90
1806;DHT22;901;48.142;11.516;2022-07-18T05:13:18;28.10;99.90
1806;DHT22;901;48.142;11.516;2022-07-18T05:15:45;28.10;99.90
1806;DHT22;901;48.142;11.516;2022-07-18T05:18:12;28.50;99.90
1806;DHT22;901;48.142;11.516;2022-07-18T05:20:39;28.30;99.90
1806;DHT22;901;48.142;11.516;2022-07-18T05:23:07;28.50;99.90
1806;DHT22;901;48.142;11.516;2022-07-18T05:25:35;28.20;99.90
1806;DHT22;901;48.142;11.516;2022-07-18T05:28:02;28.10;99.90
1806;DHT22;901;48.142;11.516;2022-07-18T05:30:29;28.40;99.90
1806;DHT22;901;48.142;11.516;2022-07-18T05:32:56;28.30;99.90
1806;DHT22;901;48.142;11.516;2022-07-18T05:35:23;28.30;99.90
1806;DHT22;901;48.142;11.516;2022-07-18T05:37:50;28.30;99.90
1806;DHT22;901;48.142;11.516;2022-07-18T05:40:18;28.40;99.90
1806;DHT22;901;48.142;11.516;2022-07-18T05:42:45;28.60;99.90
1806;DHT22;901;48.142;11.516;2022-07-18T05:45:12;28.50;99.90
1806;DHT22;901;48.142;11.516;2022-07-18T05:47:39;28.60;99.90
1806;DHT22;901;48.142;11.516;2022-07-18T05:50:08;28.40;99.90
1806;DHT22;901;48.142;11.516;2022-07-18T05:52:35;28.60;99.90
1806;DHT22;901;48.142;11.516;2022-07-18T05:55:02;28.80;99.90
1806;DHT22;901;48.142;11.516;2022-07-18T05:57:31;28.80;99.90
1806;DHT22;901;48.142;11.516;2022-07-18T05:59:58;28.50;99.90
1806;DHT22;901;48.142;11.516;2022-07-18T06:02:25;28.60;99.90
1806;DHT22;901;48.142;11.516;2022-07-18T06:04:51;28.60;99.90
1806;DHT22;901;48.142;11.516;2022-07-18T06:07:18;28.70;99.90
1806;DHT22;901;48.142;11.516;2022-07-18T06:09:45;28.60;99.90
1806;DHT22;901;48.142;11.516;2022-07-18T06:12:12;28.40;99.90
1806;DHT22;901;48.142;11.516;2022-07-18T06:14:40;28.20;99.90
1806;DHT22;901;48.142;11.516;2022-07-18T06:17:07;28.20;99.90
1806;DHT22;901;48.142;11.516;2022-07-18T06:19:34;28.30;99.90
1806;DHT22;901;48.142;11.516;2022-07-18T06:22:01;28.00;99.90
1806;DHT22;901;48.142;11.516;2022-07-18T06:24:28;27.40;99.90
1806;DHT22;901;48.142;11.516;2022-07-18T06:26:55;26.90;99.90
1806;DHT22;901;48.142;11.516;2022-07-18T06:29:22;26.50;99.90
1806;DHT22;901;48.142;11.516;2022-07-18T06:31:50;25.90;99.90
1806;DHT22;901;48.142;11.516;2022-07-18T06:34:20;25.70;82.80
1806;DHT22;901;48.142;11.516;2022-07-18T06:36:47;25.60;83.50
1806;DHT22;901;48.142;11.516;2022-07-18T06:39:13;25.50;83.90
1806;DHT22;901;48.142;11.516;2022-07-18T06:41:44;25.30;83.80
1806;DHT22;901;48.142;11.516;2022-07-18T06:44:11;25.10;84.50
1806;DHT22;901;48.142;11.516;2022-07-18T06:46:37;24.90;85.50
1806;DHT22;901;48.142;11.516;2022-07-18T06:49:06;24.90;86.10
1806;DHT22;901;48.142;11.516;2022-07-18T06:51:33;24.70;86.30
1806;DHT22;901;48.142;11.516;2022-07-18T06:54:00;24.60;86.60
1806;DHT22;901;48.142;11.516;2022-07-18T06:56:26;24.60;86.60
1806;DHT22;901;48.142;11.516;2022-07-18T06:58:53;24.60;86.90
1806;DHT22;901;48.142;11.516;2022-07-18T07:01:20;24.50;87.00
1806;DHT22;901;48.142;11.516;2022-07-18T07:03:47;24.40;87.00
1806;DHT22;901;48.142;11.516;2022-07-18T07:06:16;24.30;86.30
1806;DHT22;901;48.142;11.516;2022-07-18T07:08:43;24.30;86.30
1806;DHT22;901;48.142;11.516;2022-07-18T07:11:10;24.40;86.30
1806;DHT22;901;48.142;11.516;2022-07-18T07:13:37;24.40;86.30
1806;DHT22;901;48.142;11.516;2022-07-18T07:16:04;24.40;84.70
1806;DHT22;901;48.142;11.516;2022-07-18T07:18:31;24.30;83.50
1806;DHT22;901;48.142;11.516;2022-07-18T07:20:58;24.40;82.70
1806;DHT22;901;48.142;11.516;2022-07-18T07:23:26;24.50;82.10
1806;DHT22;901;48.142;11.516;2022-07-18T07:25:53;24.50;79.90
1806;DHT22;901;48.142;11.516;2022-07-18T07:28:21;24.40;79.20
1806;DHT22;901;48.142;11.516;2022-07-18T07:30:48;24.50;77.50
1806;DHT22;901;48.142;11.516;2022-07-18T07:33:14;24.50;77.60
1806;DHT22;901;48.142;11.516;2022-07-18T07:35:41;24.60;75.40
1806;DHT22;901;48.142;11.516;2022-07-18T07:38:09;24.70;75.10
1806;DHT22;901;48.142;11.516;2022-07-18T07:40:37;24.90;75.10
1806;DHT22;901;48.142;11.516;2022-07-18T07:43:05;25.10;74.50
1806;DHT22;901;48.142;11.516;2022-07-18T07:45:32;25.20;74.70
1806;DHT22;901;48.142;11.516;2022-07-18T07:47:59;25.40;74.70
1806;DHT22;901;48.142;11.516;2022-07-18T07:50:26;25.50;73.80
1806;DHT22;901;48.142;11.516;2022-07-18T07:52:53;25.70;71.90
1806;DHT22;901;48.142;11.516;2022-07-18T07:55:20;25.80;71.20
1806;DHT22;901;48.142;11.516;2022-07-18T07:57:48;25.90;71.00
1806;DHT22;901;48.142;11.516;2022-07-18T08:00:15;26.10;70.30
1806;DHT22;901;48.142;11.516;2022-07-18T08:02:56;26.10;70.30
1806;DHT22;901;48.142;11.516;2022-07-18T08:05:23;26.30;71.00
1806;DHT22;901;48.142;11.516;2022-07-18T08:07:50;26.40;70.10
1806;DHT22;901;48.142;11.516;2022-07-18T08:10:18;26.40;70.20
1806;DHT22;901;48.142;11.516;2022-07-18T08:12:44;26.50;70.00
1806;DHT22;901;48.142;11.516;2022-07-18T08:15:13;26.60;69.20
1806;DHT22;901;48.142;11.516;2022-07-18T08:17:40;26.80;68.50
1806;DHT22;901;48.142;11.516;2022-07-18T08:20:08;26.90;67.80
1806;DHT22;901;48.142;11.516;2022-07-18T08:22:35;27.10;67.50
1806;DHT22;901;48.142;11.516;2022-07-18T08:25:02;27.20;67.10
1806;DHT22;901;48.142;11.516;2022-07-18T08:27:29;27.20;66.90
1806;DHT22;901;48.142;11.516;2022-07-18T08:29:56;27.20;66.70
1806;DHT22;901;48.142;11.516;2022-07-18T08:32:24;27.00;66.50
1806;DHT22;901;48.142;11.516;2022-07-18T08:34:51;27.10;66.30
1806;DHT22;901;48.142;11.516;2022-07-18T08:37:19;27.20;65.60
1806;DHT22;901;48.142;11.516;2022-07-18T08:39:46;27.10;62.50
1806;DHT22;901;48.142;11.516;2022-07-18T08:42:13;27.20;61.40
1806;DHT22;901;48.142;11.516;2022-07-18T08:44:41;27.20;60.80
1806;DHT22;901;48.142;11.516;2022-07-18T08:47:08;27.20;61.70
1806;DHT22;901;48.142;11.516;2022-07-18T08:49:37;27.20;61.10
1806;DHT22;901;48.142;11.516;2022-07-18T08:52:05;27.30;60.60
1806;DHT22;901;48.142;11.516;2022-07-18T08:54:32;27.40;59.30
1806;DHT22;901;48.142;11.516;2022-07-18T08:56:59;27.50;59.80
1806;DHT22;901;48.142;11.516;2022-07-18T08:59:26;27.60;59.50
1806;DHT22;901;48.142;11.516;2022-07-18T09:01:53;27.90;58.80
1806;DHT22;901;48.142;11.516;2022-07-18T09:04:32;28.00;58.30
1806;DHT22;901;48.142;11.516;2022-07-18T09:07:00;28.10;57.70
1806;DHT22;901;48.142;11.516;2022-07-18T09:09:29;28.00;55.00
1806;DHT22;901;48.142;11.516;2022-07-18T09:11:58;27.90;56.00
1806;DHT22;901;48.142;11.516;2022-07-18T09:14:36;28.10;56.00
1806;DHT22;901;48.142;11.516;2022-07-18T09:17:08;28.20;55.20
1806;DHT22;901;48.142;11.516;2022-07-18T09:19:35;28.20;55.60
1806;DHT22;901;48.142;11.516;2022-07-18T09:22:15;28.30;55.70
1806;DHT22;901;48.142;11.516;2022-07-18T09:25:00;28.30;54.30
1806;DHT22;901;48.142;11.516;2022-07-18T09:27:33;28.40;52.70
1806;DHT22;901;48.142;11.516;2022-07-18T09:30:21;28.30;51.40
1806;DHT22;901;48.142;11.516;2022-07-18T09:32:50;28.00;52.10
1806;DHT22;901;48.142;11.516;2022-07-18T09:35:20;27.90;52.10
1806;DHT22;901;48.142;11.516;2022-07-18T09:38:01;27.90;52.00
1806;DHT22;901;48.142;11.516;2022-07-18T09:40:30;27.90;53.70
1806;DHT22;901;48.142;11.516;2022-07-18T09:42:59;28.00;54.60
1806;DHT22;901;48.142;11.516;2022-07-18T09:45:29;28.00;54.90
1806;DHT22;901;48.142;11.516;2022-07-18T09:47:57;27.90;55.00
1806;DHT22;901;48.142;11.516;2022-07-18T09:50:30;27.90;55.20
1806;DHT22;901;48.142;11.516;2022-07-18T09:53:06;27.90;55.20
1806;DHT22;901;48.142;11.516;2022-07-18T09:55:34;28.00;55.20
1806;DHT22;901;48.142;11.516;2022-07-18T09:58:05;28.00;55.00
1806;DHT22;901;48.142;11.516;2022-07-18T10:00:35;28.10;54.10
1806;DHT22;901;48.142;11.516;2022-07-18T10:03:05;28.10;53.70
1806;DHT22;901;48.142;11.516;2022-07-18T10:05:34;28.20;53.60
1806;DHT22;901;48.142;11.516;2022-07-18T10:08:05;28.50;54.10
1806;DHT22;901;48.142;11.516;2022-07-18T10:10:32;28.60;53.50
1806;DHT22;901;48.142;11.516;2022-07-18T10:13:01;28.70;53.20
1806;DHT22;901;48.142;11.516;2022-07-18T10:15:30;28.90;52.80
1806;DHT22;901;48.142;11.516;2022-07-18T10:17:57;29.20;52.70
1806;DHT22;901;48.142;11.516;2022-07-18T10:20:26;29.30;52.30
1806;DHT22;901;48.142;11.516;2022-07-18T10:22:56;29.30;51.70
1806;DHT22;901;48.142;11.516;2022-07-18T10:25:26;29.40;52.10
1806;DHT22;901;48.142;11.516;2022-07-18T10:27:54;29.60;51.70
1806;DHT22;901;48.142;11.516;2022-07-18T10:30:34;29.50;50.50
1806;DHT22;901;48.142;11.516;2022-07-18T10:33:02;29.40;50.70
1806;DHT22;901;48.142;11.516;2022-07-18T10:35:58;28.90;50.90
1806;DHT22;901;48.142;11.516;2022-07-18T10:38:25;28.60;51.20
1806;DHT22;901;48.142;11.516;2022-07-18T10:41:05;28.70;51.20
1806;DHT22;901;48.142;11.516;2022-07-18T10:43:37;28.80;51.30
1806;DHT22;901;48.142;11.516;2022-07-18T10:46:05;28.80;51.30
1806;DHT22;901;48.142;11.516;2022-07-18T10:48:57;28.80;51.20
1806;DHT22;901;48.142;11.516;2022-07-18T10:51:32;28.80;51.00
1806;DHT22;901;48.142;11.516;2022-07-18T10:54:07;28.90;51.00
1806;DHT22;901;48.142;11.516;2022-07-18T10:57:05;29.00;50.90
1806;DHT22;901;48.142;11.516;2022-07-18T10:59:33;28.80;50.90
1806;DHT22;901;48.142;11.516;2022-07-18T11:02:03;28.90;51.20
1806;DHT22;901;48.142;11.516;2022-07-18T11:04:35;29.00;50.90
1806;DHT22;901;48.142;11.516;2022-07-18T11:07:09;28.90;51.10
1806;DHT22;901;48.142;11.516;2022-07-18T11:09:38;29.00;50.70
1806;DHT22;901;48.142;11.516;2022-07-18T11:12:29;29.10;50.90
1806;DHT22;901;48.142;11.516;2022-07-18T11:15:05;29.30;50.60
1806;DHT22;901;48.142;11.516;2022-07-18T11:18:02;29.40;51.20
1806;DHT22;901;48.142;11.516;2022-07-18T11:20:41;29.40;50.80
1806;DHT22;901;48.142;11.516;2022-07-18T11:23:17;29.50;50.90
1806;DHT22;901;48.142;11.516;2022-07-18T11:25:45;29.60;50.80
1806;DHT22;901;48.142;11.516;2022-07-18T11:28:13;29.70;50.70
1806;DHT22;901;48.142;11.516;2022-07-18T11:30:41;29.80;50.30
1806;DHT22;901;48.142;11.516;2022-07-18T11:33:20;29.70;50.20
1806;DHT22;901;48.142;11.516;2022-07-18T11:35:48;29.70;50.90
1806;DHT22;901;48.142;11.516;2022-07-18T11:38:16;29.60;51.10
1806;DHT22;901;48.142;11.516;2022-07-18T11:40:47;29.60;51.10
1806;DHT22;901;48.142;11.516;2022-07-18T11:43:21;29.70;50.80
1806;DHT22;901;48.142;11.516;2022-07-18T11:45:58;29.80;50.40
1806;DHT22;901;48.142;11.516;2022-07-18T11:48:25;30.10;50.20
1806;DHT22;901;48.142;11.516;2022-07-18T11:50:53;30.30;49.50
1806;DHT22;901;48.142;11.516;2022-07-18T11:53:20;30.00;49.80
1806;DHT22;901;48.142;11.516;2022-07-18T11:55:47;30.00;50.00
1806;DHT22;901;48.142;11.516;2022-07-18T11:58:16;30.30;50.80
1806;DHT22;901;48.142;11.516;2022-07-18T12:00:46;30.40;50.80
1806;DHT22;901;48.142;11.516;2022-07-18T12:03:14;30.40;50.60
1806;DHT22;901;48.142;11.516;2022-07-18T12:05:43;30.40;50.50
1806;DHT22;901;48.142;11.516;2022-07-18T12:08:31;30.70;50.70
1806;DHT22;901;48.142;11.516;2022-07-18T12:11:06;31.00;50.40
1806;DHT22;901;48.142;11.516;2022-07-18T12:13:54;31.20;50.30
1806;DHT22;901;48.142;11.516;2022-07-18T12:16:31;31.40;50.00
1806;DHT22;901;48.142;11.516;2022-07-18T12:19:01;31.00;50.20
1806;DHT22;901;48.142;11.516;2022-07-18T12:21:43;30.90;50.70
1806;DHT22;901;48.142;11.516;2022-07-18T12:24:19;31.00;50.90
1806;DHT22;901;48.142;11.516;2022-07-18T12:26:46;31.20;50.20
1806;DHT22;901;48.142;11.516;2022-07-18T12:29:13;31.50;49.40
1806;DHT22;901;48.142;11.516;2022-07-18T12:31:42;31.60;48.80
1806;DHT22;901;48.142;11.516;2022-07-18T12:34:10;31.20;49.60
1806;DHT22;901;48.142;11.516;2022-07-18T12:36:53;30.90;50.20
1806;DHT22;901;48.142;11.516;2022-07-18T12:39:27;30.40;50.00
1806;DHT22;901;48.142;11.516;2022-07-18T12:41:54;30.50;50.20
1806;DHT22;901;48.142;11.516;2022-07-18T12:44:21;30.60;50.00
1806;DHT22;901;48.142;11.516;2022-07-18T12:46:49;30.80;49.90
1806;DHT22;901;48.142;11.516;2022-07-18T12:49:16;30.80;49.60
1806;DHT22;901;48.142;11.516;2022-07-18T12:51:44;30.90;49.50
1806;DHT22;901;48.142;11.516;2022-07-18T12:54:11;31.00;50.20
1806;DHT22;901;48.142;11.516;2022-07-18T12:56:38;30.80;49.70
1806;DHT22;901;48.142;11.516;2022-07-18T12:59:04;30.60;49.70
1806;DHT22;901;48.142;11.516;2022-07-18T13:01:31;30.50;49.80
1806;DHT22;901;48.142;11.516;2022-07-18T13:04:00;30.60;49.50
1806;DHT22;901;48.142;11.516;2022-07-18T13:06:26;30.60;50.10
1806;DHT22;901;48.142;11.516;2022-07-18T13:08:53;30.70;50.20
1806;DHT22;901;48.142;11.516;2022-07-18T13:11:20;30.80;49.90
1806;DHT22;901;48.142;11.516;2022-07-18T13:13:47;31.00;49.60
1806;DHT22;901;48.142;11.516;2022-07-18T13:16:14;31.20;49.50
1806;DHT22;901;48.142;11.516;2022-07-18T13:18:41;31.50;49.30
1806;DHT22;901;48.142;11.516;2022-07-18T13:21:09;31.70;48.80
1806;DHT22;901;48.142;11.516;2022-07-18T13:23:37;31.90;48.80
1806;DHT22;901;48.142;11.516;2022-07-18T13:26:03;32.00;48.20
1806;DHT22;901;48.142;11.516;2022-07-18T13:28:30;31.70;48.90
1806;DHT22;901;48.142;11.516;2022-07-18T13:30:57;31.70;49.00
1806;DHT22;901;48.142;11.516;2022-07-18T13:33:24;31.50;48.60
1806;DHT22;901;48.142;11.516;2022-07-18T13:35:51;31.40;48.90
1806;DHT22;901;48.142;11.516;2022-07-18T13:38:19;31.30;48.70
1806;DHT22;901;48.142;11.516;2022-07-18T13:40:46;31.30;48.90
1806;DHT22;901;48.142;11.516;2022-07-18T13:43:13;31.20;48.70
1806;DHT22;901;48.142;11.516;2022-07-18T13:45:40;31.30;48.70
1806;DHT22;901;48.142;11.516;2022-07-18T13:48:07;31.40;48.50
1806;DHT22;901;48.142;11.516;2022-07-18T13:50:34;31.70;48.30
1806;DHT22;901;48.142;11.516;2022-07-18T13:53:00;31.60;48.20
1806;DHT22;901;48.142;11.516;2022-07-18T13:55:29;31.50;48.50
1806;DHT22;901;48.142;11.516;2022-07-18T13:57:56;31.50;48.50
1806;DHT22;901;48.142;11.516;2022-07-18T14:00:22;31.40;48.50
1806;DHT22;901;48.142;11.516;2022-07-18T14:02:49;31.40;48.80
1806;DHT22;901;48.142;11.516;2022-07-18T14:05:16;31.40;48.40
1806;DHT22;901;48.142;11.516;2022-07-18T14:07:43;31.30;48.60
1806;DHT22;901;48.142;11.516;2022-07-18T14:10:13;31.20;48.80
1806;DHT22;901;48.142;11.516;2022-07-18T14:12:42;31.00;49.00
1806;DHT22;901;48.142;11.516;2022-07-18T14:15:10;31.10;48.90
1806;DHT22;901;48.142;11.516;2022-07-18T14:17:37;31.10;48.90
1806;DHT22;901;48.142;11.516;2022-07-18T14:20:05;31.20;48.80
1806;DHT22;901;48.142;11.516;2022-07-18T14:22:33;31.10;48.60
1806;DHT22;901;48.142;11.516;2022-07-18T14:25:00;31.20;49.00
1806;DHT22;901;48.142;11.516;2022-07-18T14:27:26;31.00;48.70
1806;DHT22;901;48.142;11.516;2022-07-18T14:29:55;31.10;49.30
1806;DHT22;901;48.142;11.516;2022-07-18T14:32:21;31.20;49.30
1806;DHT22;901;48.142;11.516;2022-07-18T14:34:48;31.20;48.90
1806;DHT22;901;48.142;11.516;2022-07-18T14:37:15;31.20;48.80
1806;DHT22;901;48.142;11.516;2022-07-18T14:39:42;31.20;49.00
1806;DHT22;901;48.142;11.516;2022-07-18T14:42:09;31.40;48.70
1806;DHT22;901;48.142;11.516;2022-07-18T14:44:38;31.60;48.20
1806;DHT22;901;48.142;11.516;2022-07-18T14:47:06;31.70;48.20
1806;DHT22;901;48.142;11.516;2022-07-18T14:49:33;31.60;48.70
1806;DHT22;901;48.142;11.516;2022-07-18T14:52:00;31.40;48.70
1806;DHT22;901;48.142;11.516;2022-07-18T14:54:27;31.30;48.60
1806;DHT22;901;48.142;11.516;2022-07-18T14:56:54;31.20;49.30
1806;DHT22;901;48.142;11.516;2022-07-18T14:59:21;31.20;49.60
1806;DHT22;901;48.142;11.516;2022-07-18T15:01:48;31.10;49.90
1806;DHT22;901;48.142;11.516;2022-07-18T15:04:17;31.00;50.50
1806;DHT22;901;48.142;11.516;2022-07-18T15:06:44;30.90;50.60
1806;DHT22;901;48.142;11.516;2022-07-18T15:09:10;30.80;50.70
1806;DHT22;901;48.142;11.516;2022-07-18T15:11:39;30.70;50.70
1806;DHT22;901;48.142;11.516;2022-07-18T15:14:06;30.80;51.00
1806;DHT22;901;48.142;11.516;2022-07-18T15:16:34;30.80;51.00
1806;DHT22;901;48.142;11.516;2022-07-18T15:19:01;30.60;50.70
1806;DHT22;901;48.142;11.516;2022-07-18T15:21:29;30.40;50.90
1806;DHT22;901;48.142;11.516;2022-07-18T15:23:57;30.30;51.00
1806;DHT22;901;48.142;11.516;2022-07-18T15:26:24;30.40;51.00
1806;DHT22;901;48.142;11.516;2022-07-18T15:28:50;30.50;50.70
1806;DHT22;901;48.142;11.516;2022-07-18T15:31:17;30.30;51.00
1806;DHT22;901;48.142;11.516;2022-07-18T15:33:44;30.40;51.20
1806;DHT22;901;48.142;11.516;2022-07-18T15:36:11;30.40;51.30
1806;DHT22;901;48.142;11.516;2022-07-18T15:38:40;30.40;51.10
1806;DHT22;901;48.142;11.516;2022-07-18T15:41:07;30.50;51.30
1806;DHT22;901;48.142;11.516;2022-07-18T15:43:35;30.50;51.90
1806;DHT22;901;48.142;11.516;2022-07-18T15:46:02;30.60;52.20
1806;DHT22;901;48.142;11.516;2022-07-18T15:48:29;30.50;52.20
1806;DHT22;901;48.142;11.516;2022-07-18T15:50:56;30.50;52.20
1806;DHT22;901;48.142;11.516;2022-07-18T15:53:23;30.50;52.10
1806;DHT22;901;48.142;11.516;2022-07-18T15:55:51;30.60;52.10
1806;DHT22;901;48.142;11.516;2022-07-18T15:58:18;30.70;52.00
1806;DHT22;901;48.142;11.516;2022-07-18T16:00:45;30.70;52.20
1806;DHT22;901;48.142;11.516;2022-07-18T16:03:11;30.80;52.00
1806;DHT22;901;48.142;11.516;2022-07-18T16:05:38;30.90;51.60
1806;DHT22;901;48.142;11.516;2022-07-18T16:08:05;30.90;51.20
1806;DHT22;901;48.142;11.516;2022-07-18T16:10:32;30.80;51.60
1806;DHT22;901;48.142;11.516;2022-07-18T16:13:01;31.00;51.60
1806;DHT22;901;48.142;11.516;2022-07-18T16:15:29;31.20;51.20
1806;DHT22;901;48.142;11.516;2022-07-18T16:17:56;31.10;51.20
1806;DHT22;901;48.142;11.516;2022-07-18T16:20:23;30.90;51.50
1806;DHT22;901;48.142;11.516;2022-07-18T16:22:50;30.90;51.50